Time;durP1;ratioP1;P1;durP2;ratioP2;P2;SDS_P1;SDS_P2;PMS_P1;PMS_P2;Temp;Humidity;BMP_temperature;BMP_pressure;BME280_temperature;BME280_humidity;BME280_pressure;Samples;Min_cycle;Max_cycle;Signal;HPM_P1;HPM_P2
2023/12/24 00:00:29;;;;;;;0.95;0.80;;;21.80;46.00;;;;;;10473579;28;20084;-46
2023/12/24 00:05:32;;;;;;;0.80;0.70;;;21.80;45.90;;;;;;10470744;28;20120;-45
2023/12/24 00:10:35;;;;;;;0.88;0.73;;;21.80;45.90;;;;;;10472206;28;20549;-45
2023/12/24 00:15:37;;;;;;;0.80;0.70;;;21.80;45.80;;;;;;10468927;28;20467;-44
2023/12/24 00:20:40;;;;;;;1.25;0.80;;;21.70;45.70;;;;;;10466801;28;20072;-45
2023/12/24 00:25:42;;;;;;;0.90;0.70;;;21.60;45.80;;;;;;10464086;28;20068;-45
2023/12/24 00:30:44;;;;;;;0.80;0.73;;;21.60;45.70;;;;;;10466774;28;20068;-45
2023/12/24 00:35:48;;;;;;;0.82;0.80;;;21.50;45.90;;;;;;10473346;28;20128;-45
2023/12/24 00:40:49;;;;;;;1.95;0.80;;;21.50;45.80;;;;;;10467349;28;20056;-45
2023/12/24 00:45:51;;;;;;;1.40;0.75;;;21.40;45.90;;;;;;10469241;28;20049;-45
2023/12/24 00:50:54;;;;;;;0.80;0.70;;;21.30;45.90;;;;;;10463995;28;20135;-46
2023/12/24 00:55:57;;;;;;;1.05;0.70;;;21.40;45.70;;;;;;10464718;28;20190;-45
2023/12/24 01:00:59;;;;;;;1.33;1.02;;;21.30;45.70;;;;;;10465190;28;20060;-45
2023/12/24 01:06:02;;;;;;;1.98;0.80;;;21.30;45.70;;;;;;10463241;28;20128;-44
2023/12/24 01:11:04;;;;;;;1.88;0.77;;;21.20;45.90;;;;;;10468702;28;20135;-44
2023/12/24 01:16:06;;;;;;;0.90;0.80;;;21.20;45.90;;;;;;10480054;28;20135;-45
2023/12/24 01:21:09;;;;;;;0.90;0.80;;;21.10;45.90;;;;;;10476604;28;20132;-45
2023/12/24 01:26:11;;;;;;;0.93;0.73;;;21.00;46.00;;;;;;10476556;28;20055;-45
2023/12/24 01:31:12;;;;;;;0.75;0.65;;;21.00;45.90;;;;;;10474895;28;20580;-46
2023/12/24 01:36:15;;;;;;;1.08;0.88;;;21.00;45.80;;;;;;10473382;28;20142;-45
2023/12/24 01:41:17;;;;;;;0.60;0.60;;;20.60;46.80;;;;;;10476165;28;20131;-45
2023/12/24 01:46:20;;;;;;;0.95;0.60;;;20.50;46.90;;;;;;10469591;28;20140;-45
2023/12/24 01:51:23;;;;;;;1.75;0.70;;;20.80;46.40;;;;;;10475088;28;20055;-45
2023/12/24 01:56:24;;;;;;;0.73;0.68;;;21.00;45.90;;;;;;10471409;28;20136;-45
2023/12/24 02:01:26;;;;;;;0.50;0.50;;;21.30;45.70;;;;;;10476557;28;20135;-45
2023/12/24 02:06:30;;;;;;;0.60;0.60;;;21.30;45.70;;;;;;10465625;28;20490;-45
2023/12/24 02:11:32;;;;;;;0.55;0.55;;;21.40;45.50;;;;;;10466256;28;20139;-46
2023/12/24 02:16:36;;;;;;;0.77;0.60;;;21.40;45.40;;;;;;10473432;28;20171;-45
2023/12/24 02:21:39;;;;;;;1.50;0.60;;;21.40;45.50;;;;;;10478065;28;20076;-45
2023/12/24 02:26:42;;;;;;;1.05;0.70;;;21.60;45.40;;;;;;10477094;28;20127;-45
2023/12/24 02:31:46;;;;;;;0.68;0.50;;;21.50;45.20;;;;;;10469521;28;20143;-44
2023/12/24 02:36:49;;;;;;;0.55;0.52;;;21.50;45.50;;;;;;10467083;28;20132;-46
2023/12/24 02:41:50;;;;;;;1.60;0.80;;;21.40;45.60;;;;;;10465184;28;20037;-45
2023/12/24 02:46:52;;;;;;;0.80;0.63;;;21.40;45.70;;;;;;10467129;28;20124;-45
2023/12/24 02:51:55;;;;;;;0.60;0.60;;;21.50;45.60;;;;;;10473704;28;20129;-46
2023/12/24 02:56:56;;;;;;;0.60;0.50;;;21.60;45.40;;;;;;10472363;28;20659;-46
2023/12/24 03:01:58;;;;;;;0.60;0.60;;;21.70;45.10;;;;;;10466480;28;20488;-45
2023/12/24 03:07:01;;;;;;;0.43;0.43;;;21.60;45.20;;;;;;10474817;28;20044;-46
2023/12/24 03:12:03;;;;;;;0.77;0.55;;;21.70;45.20;;;;;;10474304;28;20131;-46
2023/12/24 03:17:05;;;;;;;0.50;0.50;;;21.50;45.40;;;;;;10470588;28;20123;-45
2023/12/24 03:22:08;;;;;;;0.85;0.40;;;21.30;45.40;;;;;;10471392;28;20160;-44
2023/12/24 03:27:10;;;;;;;0.70;0.60;;;21.40;45.30;;;;;;10464896;28;20051;-45
2023/12/24 03:32:12;;;;;;;0.98;0.70;;;21.50;44.80;;;;;;10472397;28;20139;-45
2023/12/24 03:37:15;;;;;;;0.57;0.40;;;21.50;44.80;;;;;;10476581;28;20051;-45
2023/12/24 03:42:16;;;;;;;0.43;0.43;;;21.60;44.40;;;;;;10469575;28;20140;-45
2023/12/24 03:47:18;;;;;;;0.50;0.40;;;21.60;44.30;;;;;;10469391;28;20131;-46
2023/12/24 03:52:21;;;;;;;0.40;0.40;;;21.60;44.10;;;;;;10463692;28;20087;-49
2023/12/24 03:57:23;;;;;;;0.68;0.40;;;21.50;44.40;;;;;;10467180;28;20437;-45
2023/12/24 04:02:24;;;;;;;0.40;0.40;;;21.10;45.30;;;;;;10472153;28;20128;-45
2023/12/24 04:07:27;;;;;;;0.30;0.30;;;21.60;44.50;;;;;;10469955;28;20048;-47
2023/12/24 04:12:29;;;;;;;0.98;0.40;;;22.00;43.80;;;;;;10467663;28;20131;-46
2023/12/24 04:17:30;;;;;;;0.40;0.40;;;22.10;44.20;;;;;;10465470;28;20139;-45
2023/12/24 04:22:33;;;;;;;0.40;0.40;;;22.30;44.50;;;;;;10462227;28;20139;-48
2023/12/24 04:27:35;;;;;;;0.40;0.40;;;22.70;44.40;;;;;;10470305;28;20079;-46
2023/12/24 04:32:37;;;;;;;0.40;0.40;;;23.10;44.00;;;;;;10468255;28;20048;-48
2023/12/24 04:37:40;;;;;;;0.40;0.40;;;23.20;43.80;;;;;;10466457;28;20594;-46
2023/12/24 04:42:41;;;;;;;0.35;0.35;;;23.40;43.60;;;;;;10472414;28;20206;-46
2023/12/24 04:47:43;;;;;;;0.43;0.43;;;23.60;43.60;;;;;;10478535;28;20049;-45
2023/12/24 04:52:46;;;;;;;0.40;0.40;;;23.70;43.50;;;;;;10474832;28;20171;-48
2023/12/24 04:57:48;;;;;;;0.20;0.20;;;23.80;43.60;;;;;;10470269;28;20044;-45
2023/12/24 05:02:50;;;;;;;0.40;0.40;;;23.90;43.50;;;;;;10473359;28;20132;-45
2023/12/24 05:07:53;;;;;;;0.30;0.30;;;24.00;43.60;;;;;;10477815;28;20044;-46
2023/12/24 05:12:54;;;;;;;0.60;0.38;;;24.00;43.50;;;;;;10480240;28;20578;-45
2023/12/24 05:17:56;;;;;;;0.30;0.30;;;24.00;43.50;;;;;;10469747;28;20456;-45
2023/12/24 05:22:59;;;;;;;0.30;0.30;;;23.90;43.80;;;;;;10472713;28;20049;-47
2023/12/24 05:28:01;;;;;;;0.32;0.30;;;23.80;44.00;;;;;;10476508;28;20055;-45
2023/12/24 05:33:02;;;;;;;0.30;0.30;;;23.80;44.20;;;;;;10467743;28;20127;-46
2023/12/24 05:38:06;;;;;;;0.25;0.25;;;23.90;44.40;;;;;;10478559;28;20132;-47
2023/12/24 05:43:07;;;;;;;0.30;0.30;;;23.90;44.30;;;;;;10470617;28;20482;-48
2023/12/24 05:48:09;;;;;;;0.28;0.28;;;23.80;44.50;;;;;;10471881;28;20044;-46
2023/12/24 05:53:12;;;;;;;0.30;0.30;;;24.10;44.30;;;;;;10476878;28;20119;-46
2023/12/24 05:58:13;;;;;;;0.40;0.40;;;24.30;44.10;;;;;;10473416;28;20140;-49
2023/12/24 06:03:15;;;;;;;0.30;0.30;;;24.30;44.00;;;;;;10475896;28;20139;-46
2023/12/24 06:08:18;;;;;;;0.20;0.20;;;24.00;44.60;;;;;;10465813;28;20045;-46
2023/12/24 06:13:19;;;;;;;0.30;0.30;;;23.60;45.90;;;;;;10471954;28;20135;-47
2023/12/24 06:18:21;;;;;;;0.20;0.20;;;23.50;45.80;;;;;;10473850;28;20525;-45
2023/12/24 06:23:24;;;;;;;0.38;0.30;;;23.40;45.90;;;;;;10478478;28;20563;-45
2023/12/24 06:28:26;;;;;;;0.28;0.28;;;23.40;46.00;;;;;;10469335;28;20136;-46
2023/12/24 06:33:27;;;;;;;0.20;0.20;;;23.30;46.00;;;;;;10473914;28;20128;-46
2023/12/24 06:38:30;;;;;;;0.30;0.30;;;23.30;46.10;;;;;;10471099;28;20094;-45
2023/12/24 06:43:32;;;;;;;0.20;0.20;;;23.40;46.10;;;;;;10475995;28;20071;-45
2023/12/24 06:48:33;;;;;;;0.20;0.20;;;23.40;46.20;;;;;;10467580;28;20102;-45
2023/12/24 06:53:36;;;;;;;0.30;0.30;;;23.30;46.30;;;;;;10475113;28;20052;-45
2023/12/24 06:58:38;;;;;;;0.30;0.30;;;23.40;46.40;;;;;;10466247;28;20036;-46
2023/12/24 07:03:40;;;;;;;0.30;0.30;;;23.40;46.30;;;;;;10469207;28;20545;-47
2023/12/24 07:08:43;;;;;;;0.28;0.28;;;23.40;46.50;;;;;;10473035;28;20075;-45
2023/12/24 07:13:44;;;;;;;0.20;0.20;;;23.30;46.50;;;;;;10470709;28;20124;-46
2023/12/24 07:18:46;;;;;;;0.32;0.30;;;23.30;46.40;;;;;;10466230;28;20128;-46
2023/12/24 07:23:49;;;;;;;0.20;0.20;;;23.40;46.50;;;;;;10469672;28;20140;-46
2023/12/24 07:28:50;;;;;;;0.20;0.20;;;23.40;46.40;;;;;;10475117;28;20128;-45
2023/12/24 07:33:52;;;;;;;0.20;0.20;;;23.50;46.50;;;;;;10476743;28;20131;-45
2023/12/24 07:38:55;;;;;;;3.33;0.57;;;23.50;46.70;;;;;;10469702;28;20487;-45
2023/12/24 07:43:56;;;;;;;4.20;0.60;;;23.50;46.80;;;;;;10467983;28;20131;-46
2023/12/24 07:48:58;;;;;;;1.90;0.50;;;23.60;47.00;;;;;;10473553;28;20128;-46
2023/12/24 07:54:03;;;;;;;1.88;0.45;;;23.70;46.90;;;;;;10472417;28;20059;-45
2023/12/24 07:59:04;;;;;;;1.23;0.50;;;23.70;46.90;;;;;;10470577;28;20072;-47
2023/12/24 08:04:06;;;;;;;0.63;0.40;;;23.80;46.70;;;;;;10465898;28;20053;-45
2023/12/24 08:09:10;;;;;;;2.53;0.50;;;23.70;47.20;;;;;;10465241;28;20052;-45
2023/12/24 08:14:11;;;;;;;2.42;0.50;;;23.80;48.40;;;;;;10467947;28;20521;-45
2023/12/24 08:19:13;;;;;;;2.67;0.45;;;23.80;47.70;;;;;;10466853;28;20052;-48
2023/12/24 08:24:16;;;;;;;5.22;0.50;;;23.90;47.50;;;;;;10469144;28;20052;-46
2023/12/24 08:29:17;;;;;;;2.35;0.50;;;24.10;46.60;;;;;;10476412;28;20418;-46
2023/12/24 08:34:19;;;;;;;1.27;0.52;;;24.00;46.70;;;;;;10477387;28;20167;-47
2023/12/24 08:39:22;;;;;;;2.40;0.80;;;24.00;46.60;;;;;;10471397;28;20045;-46
2023/12/24 08:44:24;;;;;;;2.08;0.82;;;24.00;46.60;;;;;;10472211;28;20154;-45
2023/12/24 08:49:25;;;;;;;4.22;1.05;;;24.10;46.40;;;;;;10468642;28;20044;-45
2023/12/24 08:54:28;;;;;;;5.97;1.30;;;24.10;46.70;;;;;;10472683;28;20501;-45
2023/12/24 08:59:30;;;;;;;51.38;45.88;;;24.30;47.40;;;;;;10482924;28;20469;-45
2023/12/24 09:04:31;;;;;;;22.52;18.80;;;24.20;47.70;;;;;;10481698;28;20414;-46
2023/12/24 09:09:34;;;;;;;13.75;9.93;;;24.10;46.20;;;;;;10477332;28;20133;-45
2023/12/24 09:14:36;;;;;;;14.57;9.15;;;24.00;46.00;;;;;;10475529;28;20048;-46
2023/12/24 09:19:37;;;;;;;4.20;3.45;;;24.20;44.70;;;;;;10475934;28;20141;-49
2023/12/24 09:24:40;;;;;;;1.80;1.38;;;23.90;44.60;;;;;;10484577;28;20127;-50
2023/12/24 09:29:42;;;;;;;1.08;0.90;;;23.90;44.30;;;;;;10473539;28;20040;-48
2023/12/24 09:34:44;;;;;;;1.20;0.80;;;23.80;45.60;;;;;;10472152;28;20565;-45
2023/12/24 09:39:47;;;;;;;2.25;0.70;;;23.80;46.00;;;;;;10478562;28;20076;-45
2023/12/24 09:44:49;;;;;;;5.18;0.63;;;24.00;46.80;;;;;;10475866;28;20131;-46
2023/12/24 09:49:51;;;;;;;2.28;0.50;;;24.20;47.00;;;;;;10477949;28;20043;-45
2023/12/24 09:54:54;;;;;;;2.53;0.50;;;24.30;46.60;;;;;;10480657;28;20111;-46
2023/12/24 09:59:56;;;;;;;2.88;0.57;;;24.30;47.10;;;;;;10473665;28;20487;-45
2023/12/24 10:04:58;;;;;;;0.85;0.40;;;24.80;46.40;;;;;;10469123;28;20156;-49
2023/12/24 10:10:02;;;;;;;3.17;0.50;;;24.90;46.20;;;;;;10467950;28;20082;-46
2023/12/24 10:15:04;;;;;;;10.82;0.60;;;24.70;46.00;;;;;;10478182;28;20052;-46
2023/12/24 10:20:08;;;;;;;1.95;0.70;;;24.60;46.20;;;;;;10474482;28;20132;-48
2023/12/24 10:25:15;;;;;;;4.25;0.50;;;24.50;47.10;;;;;;10471024;28;20056;-46
2023/12/24 10:30:18;;;;;;;1.58;0.55;;;24.50;46.90;;;;;;10469173;28;20502;-48
2023/12/24 10:35:21;;;;;;;3.13;0.50;;;24.70;49.80;;;;;;10471439;28;20198;-46
2023/12/24 10:40:24;;;;;;;1.02;0.40;;;24.60;49.80;;;;;;10467127;28;20064;-50
2023/12/24 10:45:26;;;;;;;1.52;0.50;;;24.70;48.30;;;;;;10466592;28;20135;-47
2023/12/24 10:50:28;;;;;;;11.13;1.67;;;24.50;48.80;;;;;;10468453;28;20162;-47
2023/12/24 10:55:31;;;;;;;17.92;1.70;;;24.50;50.20;;;;;;10469874;28;20135;-46
2023/12/24 11:00:32;;;;;;;24.95;8.32;;;24.50;52.00;;;;;;10471706;28;20136;-48
2023/12/24 11:05:50;;;;;;;25.63;11.23;;;24.40;52.70;;;;;;10466156;28;20135;-46
2023/12/24 11:10:56;;;;;;;30.58;10.63;;;24.60;52.90;;;;;;10471352;28;20047;-47
2023/12/24 11:15:57;;;;;;;30.75;13.75;;;24.60;53.00;;;;;;10467570;28;20049;-46
2023/12/24 11:20:59;;;;;;;35.92;12.65;;;24.60;53.00;;;;;;10472030;28;20124;-46
2023/12/24 11:26:02;;;;;;;46.88;12.55;;;24.90;53.10;;;;;;10470327;28;20041;-45
2023/12/24 11:31:08;;;;;;;25.15;9.55;;;24.90;52.50;;;;;;10466772;28;20052;-50
2023/12/24 11:36:11;;;;;;;20.95;9.10;;;24.90;51.50;;;;;;10463800;28;20048;-48
2023/12/24 11:41:15;;;;;;;17.65;9.25;;;25.10;51.50;;;;;;10467007;28;20139;-46
2023/12/24 11:46:16;;;;;;;18.58;9.00;;;25.20;51.20;;;;;;10465179;28;20049;-45
2023/12/24 11:51:22;;;;;;;18.58;8.65;;;25.10;51.30;;;;;;10468152;28;20049;-46
2023/12/24 11:56:25;;;;;;;16.83;10.23;;;25.20;51.20;;;;;;10468414;28;20076;-48
2023/12/24 12:01:28;;;;;;;14.40;10.85;;;25.40;50.50;;;;;;10461532;28;20047;-45
2023/12/24 12:06:30;;;;;;;22.35;13.02;;;25.10;51.50;;;;;;10465785;28;20529;-48
2023/12/24 12:11:33;;;;;;;21.02;13.38;;;25.00;51.90;;;;;;10476565;28;20052;-47
2023/12/24 12:16:35;;;;;;;22.15;15.27;;;24.90;52.50;;;;;;10463202;28;20131;-49
2023/12/24 12:21:36;;;;;;;20.80;14.60;;;25.10;52.30;;;;;;10458951;28;20040;-47
2023/12/24 12:26:39;;;;;;;22.80;16.25;;;25.20;52.90;;;;;;10463872;28;20131;-49
2023/12/24 12:31:41;;;;;;;22.35;15.82;;;25.30;52.50;;;;;;10461531;28;20040;-48
2023/12/24 12:36:43;;;;;;;23.23;17.30;;;25.50;52.20;;;;;;10470737;28;20139;-47
2023/12/24 12:41:46;;;;;;;26.10;17.55;;;25.50;52.20;;;;;;10463682;28;20041;-46
2023/12/24 12:46:48;;;;;;;24.88;19.92;;;25.60;52.30;;;;;;10464108;28;20051;-51
2023/12/24 12:51:50;;;;;;;30.52;22.60;;;25.40;52.70;;;;;;10468250;28;20044;-47
2023/12/24 12:56:53;;;;;;;29.20;21.65;;;25.10;53.80;;;;;;10463614;28;20402;-47
2023/12/24 13:01:55;;;;;;;32.55;20.77;;;25.40;52.80;;;;;;10469215;28;20044;-46
2023/12/24 13:06:59;;;;;;;28.45;22.27;;;25.70;51.40;;;;;;10472121;28;20063;-48
2023/12/24 13:12:06;;;;;;;31.25;22.98;;;25.60;51.40;;;;;;10474056;28;20129;-51
2023/12/24 13:17:09;;;;;;;32.67;23.55;;;25.70;51.20;;;;;;10477610;28;20048;-47
2023/12/24 13:22:10;;;;;;;32.25;25.67;;;25.60;51.30;;;;;;10473271;28;20116;-49
2023/12/24 13:27:13;;;;;;;36.75;28.52;;;25.50;51.50;;;;;;10466645;28;20092;-49
2023/12/24 13:32:15;;;;;;;35.97;28.02;;;25.40;51.70;;;;;;10472048;28;20134;-47
2023/12/24 13:37:17;;;;;;;34.72;27.85;;;25.20;52.00;;;;;;10473870;28;20139;-51
2023/12/24 13:42:20;;;;;;;34.17;26.75;;;25.30;51.90;;;;;;10481084;28;20048;-51
2023/12/24 13:47:22;;;;;;;31.40;26.58;;;25.20;52.00;;;;;;10471882;28;20056;-49
2023/12/24 13:52:24;;;;;;;33.78;26.83;;;25.20;52.00;;;;;;10468403;28;20044;-53
2023/12/24 13:57:27;;;;;;;32.50;26.50;;;25.10;52.20;;;;;;10479562;28;20147;-49
2023/12/24 14:02:28;;;;;;;31.33;26.27;;;25.20;51.90;;;;;;10465814;28;20056;-49
2023/12/24 14:07:30;;;;;;;34.00;27.00;;;25.10;52.10;;;;;;10479436;28;20140;-51
2023/12/24 14:12:34;;;;;;;31.77;27.73;;;25.30;51.70;;;;;;10470929;28;20087;-51
2023/12/24 14:17:36;;;;;;;33.38;26.38;;;25.20;51.70;;;;;;10467441;28;20056;-50
2023/12/24 14:22:38;;;;;;;36.40;25.60;;;25.20;51.70;;;;;;10468772;28;20059;-47
2023/12/24 14:27:40;;;;;;;42.97;25.58;;;24.80;52.80;;;;;;10459668;28;20052;-50
2023/12/24 14:32:42;;;;;;;34.47;26.92;;;24.50;54.80;;;;;;10463832;28;20049;-49
2023/12/24 14:37:44;;;;;;;29.17;25.35;;;24.50;55.60;;;;;;10459530;28;20044;-47
2023/12/24 14:42:47;;;;;;;37.72;27.35;;;24.60;55.60;;;;;;10455895;28;20131;-48
2023/12/24 14:47:48;;;;;;;43.60;25.13;;;25.00;54.20;;;;;;10463160;28;20041;-53
2023/12/24 14:52:50;;;;;;;32.67;23.60;;;24.90;54.40;;;;;;10475148;28;20582;-51
2023/12/24 14:57:54;;;;;;;33.00;24.25;;;24.90;54.30;;;;;;10472417;28;20211;-48
2023/12/24 15:02:56;;;;;;;30.10;23.33;;;25.00;53.60;;;;;;10456381;28;20073;-53
2023/12/24 15:07:58;;;;;;;32.00;24.20;;;25.00;53.60;;;;;;10462325;28;20166;-49
2023/12/24 15:13:01;;;;;;;31.80;23.77;;;25.00;53.60;;;;;;10460980;28;20174;-53
2023/12/24 15:18:02;;;;;;;38.67;25.75;;;25.00;53.80;;;;;;10465945;28;20132;-48
2023/12/24 15:23:04;;;;;;;31.95;24.98;;;25.10;53.80;;;;;;10460833;28;20514;-49
2023/12/24 15:28:07;;;;;;;32.08;26.15;;;25.10;54.30;;;;;;10460664;28;20049;-47
2023/12/24 15:33:09;;;;;;;34.80;24.23;;;25.10;55.20;;;;;;10461564;28;20084;-47
2023/12/24 15:38:10;;;;;;;28.42;21.90;;;25.10;54.90;;;;;;10464728;28;20081;-46
2023/12/24 15:43:13;;;;;;;24.13;21.30;;;25.10;54.40;;;;;;10451010;28;20057;-47
2023/12/24 15:48:15;;;;;;;24.88;21.02;;;25.30;53.90;;;;;;10457664;28;20048;-48
2023/12/24 15:53:17;;;;;;;31.63;20.25;;;25.20;54.20;;;;;;10458703;28;20152;-50
2023/12/24 15:58:22;;;;;;;27.83;20.02;;;25.30;53.90;;;;;;10454620;28;20048;-49
2023/12/24 16:03:24;;;;;;;21.20;18.75;;;25.60;53.70;;;;;;10462030;28;20044;-47
2023/12/24 16:08:25;;;;;;;22.13;17.92;;;25.60;54.10;;;;;;10459077;28;20049;-50
2023/12/24 16:13:28;;;;;;;20.35;16.95;;;25.30;55.50;;;;;;10465699;28;20131;-47
2023/12/24 16:18:30;;;;;;;20.40;14.82;;;25.40;55.70;;;;;;10461869;28;20132;-47
2023/12/24 16:23:31;;;;;;;42.80;27.23;;;25.70;55.50;;;;;;10468335;28;20049;-48
2023/12/24 16:28:34;;;;;;;46.60;30.27;;;25.70;55.20;;;;;;10466111;28;20140;-48
2023/12/24 16:33:37;;;;;;;46.95;34.60;;;25.70;54.70;;;;;;10468808;28;20516;-47
2023/12/24 16:38:38;;;;;;;33.15;24.63;;;25.70;55.40;;;;;;10470206;28;20157;-47
2023/12/24 16:43:41;;;;;;;32.00;23.50;;;25.80;54.10;;;;;;10478698;28;20148;-46
2023/12/24 16:48:43;;;;;;;35.80;22.92;;;25.60;54.00;;;;;;10480018;28;20052;-47
2023/12/24 16:53:45;;;;;;;39.55;27.13;;;25.70;53.70;;;;;;10479026;28;20048;-47
2023/12/24 16:58:48;;;;;;;34.17;27.70;;;25.80;53.30;;;;;;10468982;28;20116;-48
2023/12/24 17:03:49;;;;;;;38.30;28.98;;;25.90;52.80;;;;;;10471108;28;20481;-49
2023/12/24 17:08:51;;;;;;;36.45;27.50;;;25.90;52.10;;;;;;10469422;28;20131;-47
2023/12/24 17:13:54;;;;;;;34.67;25.45;;;25.90;51.70;;;;;;10485822;28;20136;-47
2023/12/24 17:18:55;;;;;;;33.45;25.52;;;25.70;51.60;;;;;;10481176;28;20132;-49
2023/12/24 17:23:57;;;;;;;29.83;23.67;;;25.80;50.90;;;;;;10477202;28;20136;-48
2023/12/24 17:29:00;;;;;;;29.60;22.85;;;25.80;50.60;;;;;;10475378;28;20131;-48
2023/12/24 17:34:01;;;;;;;27.40;21.65;;;25.80;50.20;;;;;;10480143;28;20463;-52
2023/12/24 17:39:04;;;;;;;25.63;21.08;;;25.70;49.90;;;;;;10476973;28;20147;-48
2023/12/24 17:44:07;;;;;;;24.52;19.10;;;25.70;49.90;;;;;;10474799;28;20051;-47
2023/12/24 17:49:08;;;;;;;23.67;20.85;;;25.60;49.50;;;;;;10465795;28;20049;-50
2023/12/24 17:54:10;;;;;;;24.75;20.45;;;25.30;50.40;;;;;;10472397;28;20548;-46
2023/12/24 17:59:15;;;;;;;22.33;18.45;;;24.80;51.50;;;;;;10471206;28;20143;-46
2023/12/24 18:04:16;;;;;;;19.15;15.73;;;24.70;51.60;;;;;;10479064;28;20047;-51
2023/12/24 18:09:18;;;;;;;21.92;18.23;;;25.00;51.10;;;;;;10472092;28;20049;-48
2023/12/24 18:14:21;;;;;;;24.98;20.92;;;25.50;49.80;;;;;;10464697;28;20172;-50
2023/12/24 18:19:23;;;;;;;30.38;22.05;;;25.50;50.50;;;;;;10468927;28;20140;-46
2023/12/24 18:24:24;;;;;;;31.25;21.10;;;25.30;51.50;;;;;;10476443;28;20139;-48
2023/12/24 18:29:27;;;;;;;32.53;22.48;;;25.30;51.90;;;;;;10466714;28;20037;-48
2023/12/24 18:34:29;;;;;;;32.70;21.00;;;25.30;52.50;;;;;;10462435;28;20651;-48
2023/12/24 18:39:30;;;;;;;30.77;20.75;;;25.40;52.30;;;;;;10468040;28;20629;-47
2023/12/24 18:44:33;;;;;;;27.67;18.85;;;25.90;51.00;;;;;;10469431;28;20155;-47
2023/12/24 18:49:35;;;;;;;26.50;19.23;;;25.90;50.80;;;;;;10474262;28;20083;-49
2023/12/24 18:54:37;;;;;;;23.92;18.35;;;26.10;50.40;;;;;;10475068;28;20051;-49
2023/12/24 18:59:39;;;;;;;21.77;17.73;;;26.10;50.30;;;;;;10477422;28;20140;-47
2023/12/24 19:04:41;;;;;;;20.27;17.13;;;26.10;50.30;;;;;;10482208;28;20582;-47
2023/12/24 19:09:43;;;;;;;24.15;17.55;;;26.10;50.20;;;;;;10475971;28;20405;-49
2023/12/24 19:14:46;;;;;;;21.98;16.60;;;25.60;51.20;;;;;;10472479;28;20169;-48
2023/12/24 19:19:47;;;;;;;20.23;15.88;;;25.70;51.20;;;;;;10467976;28;20128;-51
2023/12/24 19:24:49;;;;;;;20.95;16.40;;;25.80;50.60;;;;;;10476291;28;20632;-47
2023/12/24 19:29:52;;;;;;;18.05;15.65;;;25.60;50.80;;;;;;10477224;28;20132;-49
2023/12/24 19:34:53;;;;;;;20.15;15.25;;;25.70;50.50;;;;;;10475357;28;20743;-48
2023/12/24 19:39:55;;;;;;;20.27;15.20;;;25.70;50.10;;;;;;10475084;28;20044;-47
2023/12/24 19:44:58;;;;;;;21.77;15.82;;;25.40;51.20;;;;;;10464633;28;20133;-49
2023/12/24 19:49:59;;;;;;;17.25;13.88;;;25.20;51.50;;;;;;10467834;28;20140;-49
2023/12/24 19:55:01;;;;;;;18.48;14.90;;;25.10;52.00;;;;;;10469150;28;20049;-49
2023/12/24 20:00:05;;;;;;;20.08;15.30;;;25.10;51.70;;;;;;10474730;28;20578;-50
2023/12/24 20:05:07;;;;;;;22.35;14.40;;;25.00;51.80;;;;;;10470144;28;20139;-48
2023/12/24 20:10:09;;;;;;;20.92;14.95;;;24.90;52.50;;;;;;10474756;28;20136;-47
2023/12/24 20:15:12;;;;;;;19.38;13.38;;;24.60;53.50;;;;;;10472324;28;20140;-46
2023/12/24 20:20:14;;;;;;;23.48;15.05;;;24.50;53.90;;;;;;10478466;28;20131;-47
2023/12/24 20:25:16;;;;;;;26.75;17.23;;;24.30;54.20;;;;;;10474985;28;20135;-51
2023/12/24 20:30:19;;;;;;;24.83;19.73;;;24.50;53.60;;;;;;10465501;28;20053;-47
2023/12/24 20:35:20;;;;;;;28.02;21.98;;;24.30;53.80;;;;;;10469571;28;20132;-46
2023/12/24 20:40:22;;;;;;;30.70;22.80;;;24.20;53.70;;;;;;10476557;28;20076;-48
2023/12/24 20:45:25;;;;;;;29.85;21.02;;;24.10;54.40;;;;;;10476278;28;20132;-47
2023/12/24 20:50:26;;;;;;;29.52;21.27;;;24.00;54.80;;;;;;10467505;28;20136;-47
2023/12/24 20:55:28;;;;;;;25.05;20.55;;;24.10;54.70;;;;;;10471765;28;20136;-46
2023/12/24 21:00:31;;;;;;;26.10;19.38;;;23.90;54.60;;;;;;10463850;28;20049;-51
2023/12/24 21:05:32;;;;;;;24.23;18.80;;;23.70;55.00;;;;;;10469790;28;20136;-49
2023/12/24 21:10:34;;;;;;;22.65;18.58;;;23.80;54.80;;;;;;10464070;28;20562;-46
2023/12/24 21:15:37;;;;;;;23.73;18.52;;;23.80;54.60;;;;;;10465981;28;20500;-47
2023/12/24 21:20:39;;;;;;;22.15;15.88;;;23.70;54.70;;;;;;10472440;28;20123;-47
2023/12/24 21:25:41;;;;;;;23.73;16.88;;;23.60;54.70;;;;;;10467142;28;20132;-48
2023/12/24 21:30:43;;;;;;;22.20;15.07;;;23.70;54.70;;;;;;10466746;28;20140;-47
2023/12/24 21:35:46;;;;;;;17.90;14.90;;;23.80;53.70;;;;;;10470280;28;20128;-49
2023/12/24 21:40:47;;;;;;;21.45;14.98;;;23.90;53.50;;;;;;10465330;28;20459;-47
2023/12/24 21:45:50;;;;;;;19.35;14.07;;;24.00;53.20;;;;;;10466346;28;20049;-47
2023/12/24 21:50:52;;;;;;;21.90;14.38;;;24.10;52.90;;;;;;10470022;28;20047;-48
2023/12/24 21:55:53;;;;;;;19.55;13.73;;;24.10;52.80;;;;;;10477585;28;20135;-48
2023/12/24 22:00:57;;;;;;;17.55;13.40;;;24.10;52.20;;;;;;10478472;28;20155;-46
2023/12/24 22:05:59;;;;;;;18.38;12.93;;;24.10;52.00;;;;;;10469707;28;20056;-47
2023/12/24 22:11:00;;;;;;;20.90;13.02;;;24.10;52.00;;;;;;10478290;28;20040;-47
2023/12/24 22:16:03;;;;;;;16.13;12.57;;;24.00;51.80;;;;;;10478409;28;20171;-49
2023/12/24 22:21:05;;;;;;;15.43;12.73;;;23.90;51.70;;;;;;10479727;28;20127;-49
2023/12/24 22:26:08;;;;;;;17.60;11.98;;;24.00;51.50;;;;;;10475129;28;20049;-46
2023/12/24 22:31:11;;;;;;;14.63;11.90;;;23.90;51.40;;;;;;10478353;28;20123;-47
2023/12/24 22:36:14;;;;;;;11.50;8.98;;;23.80;51.50;;;;;;10470558;28;20056;-47
2023/12/24 22:41:15;;;;;;;9.13;6.50;;;23.50;52.10;;;;;;10466221;28;20455;-47
2023/12/24 22:46:18;;;;;;;8.57;5.10;;;23.20;52.10;;;;;;10465884;28;20151;-47
2023/12/24 22:51:20;;;;;;;7.88;4.68;;;23.20;51.20;;;;;;10476187;28;20086;-47
2023/12/24 22:56:21;;;;;;;9.25;4.22;;;23.30;50.90;;;;;;10459793;28;20139;-47
2023/12/24 23:01:24;;;;;;;6.80;3.17;;;23.20;49.90;;;;;;10463771;28;20127;-49
2023/12/24 23:06:26;;;;;;;6.68;3.20;;;23.30;49.20;;;;;;10467993;28;20140;-49
2023/12/24 23:11:28;;;;;;;8.77;3.00;;;23.30;49.00;;;;;;10465211;28;20044;-47
2023/12/24 23:16:31;;;;;;;7.07;2.83;;;23.20;48.90;;;;;;10460858;28;20136;-47
2023/12/24 23:21:34;;;;;;;5.85;2.67;;;23.20;48.80;;;;;;10471429;28;20045;-49
2023/12/24 23:26:35;;;;;;;8.73;2.90;;;23.10;48.10;;;;;;10474582;28;20044;-47
2023/12/24 23:31:38;;;;;;;5.15;2.50;;;23.00;48.00;;;;;;10484375;28;20391;-47
2023/12/24 23:36:40;;;;;;;7.88;2.65;;;22.90;47.70;;;;;;10469789;28;20071;-48
2023/12/24 23:41:41;;;;;;;6.07;2.47;;;23.00;47.90;;;;;;10475718;28;20079;-48
2023/12/24 23:46:44;;;;;;;4.60;2.10;;;23.10;48.40;;;;;;10477295;28;21006;-46
2023/12/24 23:51:46;;;;;;;4.22;2.38;;;23.10;48.40;;;;;;10484719;28;20123;-47
2023/12/24 23:56:48;;;;;;;5.85;2.67;;;22.90;48.50;;;;;;10472828;28;20136;-47
